createdAt,value
2017-08-27T00:01:03.754Z,7.10
2017-08-27T00:03:29.773Z,7.67
2017-08-27T00:05:55.845Z,7.15
2017-08-27T00:08:21.886Z,7.10
2017-08-27T00:10:47.932Z,7.85
2017-08-27T00:13:14.318Z,7.30
2017-08-27T00:15:40.360Z,7.30
2017-08-27T00:18:06.406Z,7.30
2017-08-27T00:20:32.446Z,7.22
2017-08-27T00:22:58.556Z,7.80
2017-08-27T00:25:24.607Z,7.70
2017-08-27T00:27:50.660Z,7.75
2017-08-27T00:30:16.709Z,7.82
2017-08-27T00:32:42.762Z,8.43
2017-08-27T00:35:08.811Z,7.68
2017-08-27T00:37:34.870Z,7.60
2017-08-27T00:40:00.932Z,8.95
2017-08-27T00:42:26.986Z,8.45
2017-08-27T00:44:53.075Z,9.80
2017-08-27T00:47:19.152Z,10.00
2017-08-27T00:49:45.182Z,12.30
2017-08-27T00:52:11.278Z,11.48
2017-08-27T00:54:37.325Z,13.45
2017-08-27T00:57:03.381Z,14.13
2017-08-27T00:59:29.602Z,14.05
2017-08-27T01:01:55.648Z,14.80
2017-08-27T01:04:21.854Z,15.90
2017-08-27T01:06:47.902Z,16.95
2017-08-27T01:09:13.947Z,16.37
2017-08-27T01:11:40.018Z,17.40
2017-08-27T01:14:06.911Z,17.93
2017-08-27T01:16:32.938Z,17.02
2017-08-27T01:18:59.371Z,17.50
2017-08-27T01:21:25.442Z,19.12
2017-08-27T01:23:51.487Z,18.25
2017-08-27T01:26:17.582Z,20.02
2017-08-27T01:28:43.635Z,21.05
2017-08-27T01:31:09.679Z,20.90
2017-08-27T01:33:35.719Z,21.23
2017-08-27T01:36:01.735Z,43.92
2017-08-27T01:38:28.574Z,27.75
2017-08-27T01:40:54.590Z,34.90
2017-08-27T01:43:20.621Z,40.85
2017-08-27T01:45:46.692Z,50.05
2017-08-27T01:48:12.748Z,50.63
2017-08-27T01:50:38.788Z,35.90
2017-08-27T01:53:04.850Z,54.05
2017-08-27T01:55:30.891Z,24.08
2017-08-27T01:57:56.982Z,24.70
2017-08-27T02:00:23.063Z,22.50
2017-08-27T02:02:49.118Z,22.90
2017-08-27T02:05:15.147Z,22.10
2017-08-27T02:07:41.595Z,21.10
2017-08-27T02:10:07.626Z,23.12
2017-08-27T02:12:33.647Z,21.80
2017-08-27T02:14:59.734Z,20.95
2017-08-27T02:17:25.788Z,21.92
2017-08-27T02:19:51.854Z,21.00
2017-08-27T02:22:17.955Z,21.95
2017-08-27T02:24:43.998Z,20.90
2017-08-27T02:27:10.055Z,20.35
2017-08-27T02:29:36.202Z,20.00
2017-08-27T02:32:02.231Z,19.50
2017-08-27T02:34:28.320Z,19.17
2017-08-27T02:36:54.593Z,18.73
2017-08-27T02:39:20.619Z,18.27
2017-08-27T02:41:46.639Z,19.83
2017-08-27T02:44:12.896Z,19.90
2017-08-27T02:46:38.972Z,19.42
2017-08-27T02:49:05.010Z,18.23
2017-08-27T02:51:31.086Z,20.00
2017-08-27T02:53:57.122Z,19.50
2017-08-27T02:56:23.161Z,21.48
2017-08-27T02:58:49.232Z,23.20
2017-08-27T03:01:15.287Z,23.05
2017-08-27T03:03:41.345Z,24.40
2017-08-27T03:06:07.379Z,24.73
2017-08-27T03:08:33.410Z,25.40
2017-08-27T03:10:59.799Z,26.85
2017-08-27T03:13:25.838Z,26.87
2017-08-27T03:15:51.868Z,29.52
2017-08-27T03:18:17.978Z,25.73
2017-08-27T03:20:44.001Z,27.37
2017-08-27T03:23:10.025Z,27.15
2017-08-27T03:25:36.081Z,27.42
2017-08-27T03:28:02.114Z,27.37
2017-08-27T03:30:28.142Z,26.33
2017-08-27T03:32:54.158Z,26.73
2017-08-27T03:35:20.175Z,27.80
2017-08-27T03:37:46.259Z,26.85
2017-08-27T03:40:12.284Z,28.40
2017-08-27T03:42:38.309Z,29.85
2017-08-27T03:45:04.760Z,30.77
2017-08-27T03:47:30.771Z,28.38
2017-08-27T03:49:56.796Z,28.65
2017-08-27T03:52:22.979Z,30.15
2017-08-27T03:54:48.998Z,28.70
2017-08-27T03:57:15.010Z,29.33
2017-08-27T03:59:41.095Z,30.48
2017-08-27T04:02:07.233Z,28.10
2017-08-27T04:04:33.319Z,30.65
2017-08-27T04:06:59.344Z,30.60
2017-08-27T04:09:25.367Z,30.00
2017-08-27T04:11:51.662Z,31.80
2017-08-27T04:14:17.703Z,29.90
2017-08-27T04:16:43.719Z,33.17
2017-08-27T04:19:09.790Z,34.47
2017-08-27T04:21:35.837Z,34.30
2017-08-27T04:24:01.868Z,35.15
2017-08-27T04:26:28.318Z,37.47
2017-08-27T04:28:54.365Z,38.42
2017-08-27T04:31:20.414Z,37.97
2017-08-27T04:33:46.426Z,38.55
2017-08-27T04:36:12.516Z,38.15
2017-08-27T04:38:38.555Z,38.17
2017-08-27T04:41:04.572Z,36.35
2017-08-27T04:43:30.962Z,38.78
2017-08-27T04:45:57.071Z,36.95
2017-08-27T04:48:23.262Z,37.13
2017-08-27T04:50:49.358Z,37.20
2017-08-27T04:53:15.398Z,37.55
2017-08-27T04:55:41.406Z,37.50
2017-08-27T04:58:07.456Z,37.03
2017-08-27T05:00:33.506Z,36.57
2017-08-27T05:02:59.571Z,37.00
2017-08-27T05:05:25.639Z,37.67
2017-08-27T05:07:51.675Z,33.67
2017-08-27T05:10:17.769Z,35.10
2017-08-27T05:12:43.825Z,35.22
2017-08-27T05:15:09.858Z,36.10
2017-08-27T05:17:35.875Z,36.78
2017-08-27T05:20:01.918Z,35.15
2017-08-27T05:22:27.934Z,35.78
2017-08-27T05:24:53.954Z,34.30
2017-08-27T05:27:20.367Z,35.80
2017-08-27T05:29:46.453Z,35.95
2017-08-27T05:32:12.491Z,34.87
2017-08-27T05:34:38.566Z,37.50
2017-08-27T05:37:04.599Z,37.33
2017-08-27T05:39:30.638Z,33.47
2017-08-27T05:41:56.662Z,33.30
2017-08-27T05:44:25.197Z,33.88
2017-08-27T05:46:51.260Z,30.08
2017-08-27T05:49:17.275Z,30.63
2017-08-27T05:51:43.318Z,29.60
2017-08-27T05:54:09.678Z,26.90
2017-08-27T05:56:35.720Z,24.20
2017-08-27T05:59:01.765Z,25.60
2017-08-27T06:01:28.056Z,23.50
2017-08-27T06:03:54.235Z,23.40
2017-08-27T06:06:20.258Z,22.92
2017-08-27T06:08:46.303Z,22.42
2017-08-27T06:11:12.342Z,20.30
2017-08-27T06:13:38.394Z,20.80
2017-08-27T06:16:04.414Z,19.12
2017-08-27T06:18:30.474Z,18.58
2017-08-27T06:20:56.506Z,16.90
2017-08-27T06:23:22.602Z,17.50
2017-08-27T06:25:48.639Z,16.62
2017-08-27T06:28:14.691Z,14.07
2017-08-27T06:30:40.778Z,13.68
2017-08-27T06:33:06.803Z,14.00
2017-08-27T06:35:32.880Z,12.15
2017-08-27T06:37:58.942Z,11.02
2017-08-27T06:42:17.143Z,10.40
2017-08-27T06:44:43.238Z,9.65
2017-08-27T06:47:09.267Z,9.07
2017-08-27T06:49:35.319Z,8.95
2017-08-27T06:52:01.370Z,8.10
2017-08-27T06:54:27.443Z,7.10
2017-08-27T06:56:53.494Z,7.00
2017-08-27T06:59:19.534Z,6.78
2017-08-27T07:01:45.563Z,6.40
2017-08-27T07:04:11.591Z,5.93
2017-08-27T07:06:37.653Z,5.80
2017-08-27T07:09:03.714Z,5.10
2017-08-27T07:11:29.734Z,4.50
2017-08-27T07:13:55.800Z,4.47
2017-08-27T07:16:21.830Z,4.37
2017-08-27T07:18:47.871Z,4.10
2017-08-27T07:21:13.895Z,4.07
2017-08-27T07:23:39.946Z,3.70
2017-08-27T07:26:06.334Z,3.27
2017-08-27T07:28:32.429Z,3.47
2017-08-27T07:30:58.499Z,3.60
2017-08-27T07:33:24.590Z,2.90
2017-08-27T07:35:50.620Z,3.65
2017-08-27T07:38:16.662Z,3.30
2017-08-27T07:40:43.011Z,3.10
2017-08-27T07:43:09.060Z,2.70
2017-08-27T07:45:35.167Z,2.95
2017-08-27T07:48:01.468Z,2.80
2017-08-27T07:50:27.514Z,2.93
2017-08-27T07:52:53.545Z,2.80
2017-08-27T07:55:19.578Z,2.70
2017-08-27T07:57:45.607Z,2.78
2017-08-27T08:00:11.659Z,2.70
2017-08-27T08:02:37.818Z,2.80
2017-08-27T08:05:03.854Z,3.00
2017-08-27T08:07:29.920Z,2.40
2017-08-27T08:09:55.954Z,2.17
2017-08-27T08:12:22.011Z,2.80
2017-08-27T08:14:48.083Z,3.00
2017-08-27T08:17:14.142Z,2.70
2017-08-27T08:19:40.199Z,2.50
2017-08-27T08:22:06.222Z,3.00
2017-08-27T08:24:32.274Z,2.75
2017-08-27T08:26:58.328Z,2.20
2017-08-27T08:29:24.358Z,2.60
2017-08-27T08:31:50.402Z,2.80
2017-08-27T08:34:16.428Z,2.70
2017-08-27T08:36:42.508Z,2.53
2017-08-27T08:39:08.722Z,2.47
2017-08-27T08:41:34.823Z,1.90
2017-08-27T08:44:00.878Z,2.30
2017-08-27T08:46:26.936Z,2.20
2017-08-27T08:48:52.987Z,2.80
2017-08-27T08:51:19.536Z,2.60
2017-08-27T08:53:45.618Z,2.10
2017-08-27T08:56:11.702Z,2.35
2017-08-27T08:58:37.905Z,2.40
2017-08-27T09:01:03.920Z,2.20
2017-08-27T09:03:29.970Z,2.50
2017-08-27T09:05:56.294Z,2.60
2017-08-27T09:08:22.314Z,2.90
2017-08-27T09:10:48.382Z,2.87
2017-08-27T09:13:14.440Z,2.80
2017-08-27T09:15:40.454Z,2.60
2017-08-27T09:18:06.488Z,2.53
2017-08-27T09:20:32.521Z,2.30
2017-08-27T09:22:58.574Z,2.40
2017-08-27T09:25:24.634Z,2.30
2017-08-27T09:27:50.687Z,2.50
2017-08-27T09:30:16.729Z,2.58
2017-08-27T09:32:42.738Z,2.40
2017-08-27T09:35:08.832Z,3.30
2017-08-27T09:37:34.862Z,3.30
2017-08-27T09:40:00.890Z,10.67
2017-08-27T09:42:26.934Z,10.10
2017-08-27T09:44:53.030Z,2.87
2017-08-27T09:47:19.079Z,2.50
2017-08-27T09:49:45.186Z,2.15
2017-08-27T09:52:11.206Z,2.40
2017-08-27T09:54:37.238Z,3.00
2017-08-27T09:57:03.312Z,2.80
2017-08-27T09:59:29.368Z,2.70
2017-08-27T10:01:55.395Z,2.10
2017-08-27T10:04:21.491Z,2.30
2017-08-27T10:06:47.507Z,2.40
2017-08-27T10:09:13.526Z,2.30
2017-08-27T10:11:39.606Z,2.10
2017-08-27T10:14:05.666Z,2.00
2017-08-27T10:16:31.707Z,2.40
2017-08-27T10:18:57.765Z,2.10
2017-08-27T10:21:23.958Z,2.07
2017-08-27T10:23:50.007Z,2.10
2017-08-27T10:26:16.028Z,2.30
2017-08-27T10:28:42.426Z,2.10
2017-08-27T10:31:08.442Z,2.72
2017-08-27T10:33:34.479Z,2.10
2017-08-27T10:36:00.538Z,2.00
2017-08-27T10:38:26.575Z,2.10
2017-08-27T10:40:52.636Z,2.65
2017-08-27T10:43:18.704Z,2.30
2017-08-27T10:45:44.785Z,2.85
2017-08-27T10:48:10.828Z,3.05
2017-08-27T10:50:36.936Z,6.45
2017-08-27T10:53:03.036Z,3.37
2017-08-27T10:55:29.107Z,2.70
2017-08-27T10:57:55.303Z,3.20
2017-08-27T11:00:21.339Z,3.40
2017-08-27T11:02:47.355Z,2.80
2017-08-27T11:05:13.386Z,2.70
2017-08-27T11:07:39.439Z,2.60
2017-08-27T11:10:05.818Z,2.20
2017-08-27T11:12:31.858Z,2.20
2017-08-27T11:14:57.891Z,2.40
2017-08-27T11:17:23.942Z,2.33
2017-08-27T11:19:49.942Z,2.47
2017-08-27T11:22:15.978Z,2.50
2017-08-27T11:24:43.275Z,2.80
2017-08-27T11:27:09.352Z,2.05
2017-08-27T11:29:35.387Z,2.10
2017-08-27T11:32:01.674Z,2.20
2017-08-27T11:34:27.875Z,2.30
2017-08-27T11:36:53.918Z,2.10
2017-08-27T11:39:19.963Z,2.17
2017-08-27T11:41:46.009Z,2.10
2017-08-27T11:44:12.085Z,2.20
2017-08-27T11:46:38.319Z,2.10
2017-08-27T11:49:04.488Z,3.00
2017-08-27T11:51:30.579Z,3.47
2017-08-27T11:53:56.874Z,2.50
2017-08-27T11:56:23.366Z,2.50
2017-08-27T11:58:49.422Z,2.50
2017-08-27T12:01:15.542Z,7.72
2017-08-27T12:03:41.634Z,20.70
2017-08-27T12:06:07.658Z,20.23
2017-08-27T12:08:33.744Z,2.30
2017-08-27T12:11:00.685Z,2.20
2017-08-27T12:13:26.702Z,2.10
2017-08-27T12:15:53.106Z,1.90
2017-08-27T12:18:19.161Z,2.10
2017-08-27T12:20:45.214Z,2.40
2017-08-27T12:23:11.523Z,2.10
2017-08-27T12:25:37.571Z,2.40
2017-08-27T12:28:03.619Z,2.03
2017-08-27T12:30:30.402Z,1.92
2017-08-27T12:32:56.658Z,2.15
2017-08-27T12:35:22.696Z,2.13
2017-08-27T12:37:48.934Z,1.90
2017-08-27T12:40:14.962Z,2.83
2017-08-27T12:42:41.299Z,3.83
2017-08-27T12:45:07.723Z,3.83
2017-08-27T12:47:33.746Z,2.40
2017-08-27T12:49:59.762Z,2.70
2017-08-27T12:52:25.795Z,2.50
2017-08-27T12:54:51.878Z,2.10
2017-08-27T12:57:17.940Z,2.58
2017-08-27T12:59:44.094Z,2.40
2017-08-27T13:02:10.205Z,2.30
2017-08-27T13:04:36.253Z,2.20
2017-08-27T13:07:02.526Z,2.60
2017-08-27T13:09:29.300Z,2.22
2017-08-27T13:11:55.344Z,2.25
2017-08-27T13:14:21.382Z,2.40
2017-08-27T13:16:47.434Z,2.22
2017-08-27T13:19:13.482Z,2.20
2017-08-27T13:21:42.796Z,2.00
2017-08-27T13:24:08.879Z,2.08
2017-08-27T13:26:34.907Z,1.80
2017-08-27T13:29:00.964Z,1.80
2017-08-27T13:31:27.256Z,1.80
2017-08-27T13:33:57.813Z,1.90
2017-08-27T13:36:24.399Z,2.10
2017-08-27T13:38:50.447Z,2.20
2017-08-27T13:41:16.506Z,1.83
2017-08-27T13:43:42.543Z,2.10
2017-08-27T13:46:08.615Z,2.12
2017-08-27T13:48:34.690Z,2.20
2017-08-27T13:51:00.754Z,2.05
2017-08-27T13:53:26.795Z,2.20
2017-08-27T13:55:52.827Z,2.00
2017-08-27T13:58:18.861Z,2.00
2017-08-27T14:00:44.903Z,2.00
2017-08-27T14:03:10.924Z,2.40
2017-08-27T14:05:36.964Z,2.08
2017-08-27T14:08:03.195Z,2.00
2017-08-27T14:10:29.235Z,2.00
2017-08-27T14:12:55.262Z,2.00
2017-08-27T14:15:21.293Z,1.70
2017-08-27T14:17:47.322Z,1.70
2017-08-27T14:20:13.339Z,2.00
2017-08-27T14:22:39.622Z,2.00
2017-08-27T14:25:05.670Z,1.50
2017-08-27T14:27:31.686Z,1.90
2017-08-27T14:29:57.742Z,2.20
2017-08-27T14:32:23.799Z,1.95
2017-08-27T14:34:49.834Z,1.83
2017-08-27T14:37:16.198Z,2.00
2017-08-27T14:39:42.238Z,1.90
2017-08-27T14:42:08.658Z,1.80
2017-08-27T14:44:34.795Z,2.00
2017-08-27T14:47:00.805Z,2.20
2017-08-27T14:49:26.922Z,2.10
2017-08-27T14:51:53.093Z,2.10
2017-08-27T14:54:19.110Z,1.80
2017-08-27T14:56:45.139Z,2.40
2017-08-27T14:59:11.470Z,2.30
2017-08-27T15:01:37.500Z,2.08
2017-08-27T15:04:03.512Z,1.90
2017-08-27T15:06:29.734Z,2.00
2017-08-27T15:08:55.760Z,2.12
2017-08-27T15:11:21.815Z,2.20
2017-08-27T15:13:48.114Z,2.30
2017-08-27T15:16:14.165Z,1.90
2017-08-27T15:18:40.182Z,2.40
2017-08-27T15:21:06.238Z,2.30
2017-08-27T15:23:32.290Z,2.30
2017-08-27T15:25:58.342Z,2.50
2017-08-27T15:28:24.413Z,2.33
2017-08-27T15:30:50.447Z,2.50
2017-08-27T15:33:16.498Z,2.20
2017-08-27T15:35:42.583Z,2.40
2017-08-27T15:38:08.632Z,2.30
2017-08-27T15:40:34.658Z,2.20
2017-08-27T15:43:00.712Z,2.10
2017-08-27T15:45:26.735Z,2.10
2017-08-27T15:47:52.811Z,2.00
2017-08-27T15:50:19.299Z,2.20
2017-08-27T15:52:45.381Z,2.20
2017-08-27T15:55:11.438Z,2.30
2017-08-27T15:57:37.506Z,2.22
2017-08-27T16:00:03.558Z,2.10
2017-08-27T16:02:29.618Z,1.83
2017-08-27T16:04:55.686Z,1.80
2017-08-27T16:07:21.744Z,2.30
2017-08-27T16:09:47.819Z,2.00
2017-08-27T16:12:13.871Z,2.20
2017-08-27T16:14:39.910Z,2.08
2017-08-27T16:17:05.958Z,2.10
2017-08-27T16:19:32.228Z,2.40
2017-08-27T16:21:58.262Z,2.10
2017-08-27T16:24:24.330Z,2.10
2017-08-27T16:26:50.414Z,2.10
2017-08-27T16:29:16.582Z,2.10
2017-08-27T16:31:42.664Z,2.30
2017-08-27T16:34:08.774Z,2.10
2017-08-27T16:36:34.819Z,2.40
2017-08-27T16:39:00.876Z,2.10
2017-08-27T16:41:26.947Z,2.20
2017-08-27T16:43:52.987Z,2.37
2017-08-27T16:46:19.094Z,2.28
2017-08-27T16:48:45.741Z,1.90
2017-08-27T16:51:11.905Z,2.50
2017-08-27T16:53:37.966Z,2.40
2017-08-27T16:56:04.051Z,2.53
2017-08-27T16:58:30.111Z,3.47
2017-08-27T17:00:56.159Z,37.03
2017-08-27T17:03:22.240Z,85.47
2017-08-27T17:05:48.270Z,101.80
2017-08-27T17:08:14.395Z,38.65
2017-08-27T17:10:40.496Z,18.73
2017-08-27T17:13:06.543Z,5.32
2017-08-27T17:15:32.865Z,3.65
2017-08-27T17:17:59.143Z,4.28
2017-08-27T17:20:25.192Z,3.00
2017-08-27T17:22:51.294Z,2.40
2017-08-27T17:25:17.364Z,2.40
2017-08-27T17:27:43.462Z,2.42
2017-08-27T17:30:09.523Z,2.20
2017-08-27T17:32:43.359Z,2.40
2017-08-27T17:35:09.432Z,2.62
2017-08-27T17:37:35.480Z,2.40
2017-08-27T17:40:01.564Z,2.60
2017-08-27T17:42:27.765Z,2.45
2017-08-27T17:44:53.841Z,2.03
2017-08-27T17:47:19.958Z,2.37
2017-08-27T17:49:46.064Z,2.65
2017-08-27T17:52:12.133Z,2.10
2017-08-27T17:54:38.218Z,2.47
2017-08-27T17:57:04.272Z,2.40
2017-08-27T17:59:30.339Z,2.50
2017-08-27T18:01:56.380Z,2.50
2017-08-27T18:04:22.727Z,2.60
2017-08-27T18:06:48.767Z,2.30
2017-08-27T18:09:14.834Z,2.75
2017-08-27T18:11:40.906Z,2.53
2017-08-27T18:14:06.975Z,2.50
2017-08-27T18:16:33.007Z,2.40
2017-08-27T18:18:59.054Z,2.90
2017-08-27T18:21:25.081Z,2.70
2017-08-27T18:23:51.119Z,2.70
2017-08-27T18:26:17.283Z,2.33
2017-08-27T18:28:43.367Z,2.45
2017-08-27T18:31:09.434Z,2.50
2017-08-27T18:33:35.558Z,2.87
2017-08-27T18:36:01.630Z,2.50
2017-08-27T18:38:27.814Z,2.80
2017-08-27T18:40:53.857Z,2.58
2017-08-27T18:43:19.984Z,2.75
2017-08-27T18:45:46.018Z,2.80
2017-08-27T18:48:12.050Z,2.90
2017-08-27T18:50:38.147Z,2.87
2017-08-27T18:53:04.177Z,2.95
2017-08-27T18:55:30.217Z,3.40
2017-08-27T18:57:56.293Z,3.20
2017-08-27T19:00:22.334Z,3.37
2017-08-27T19:02:54.554Z,3.00
2017-08-27T19:05:20.826Z,3.30
2017-08-27T19:07:46.891Z,3.40
2017-08-27T19:10:12.938Z,3.10
2017-08-27T19:12:39.002Z,3.37
2017-08-27T19:15:05.098Z,3.28
2017-08-27T19:17:31.158Z,3.12
2017-08-27T19:19:57.272Z,3.42
2017-08-27T19:22:23.339Z,3.50
2017-08-27T19:24:49.391Z,3.55
2017-08-27T19:27:15.487Z,3.47
2017-08-27T19:29:41.570Z,3.55
2017-08-27T19:32:07.614Z,3.50
2017-08-27T19:34:33.663Z,3.40
2017-08-27T19:36:59.713Z,3.97
2017-08-27T19:39:25.760Z,3.30
2017-08-27T19:41:52.271Z,3.40
2017-08-27T19:44:18.339Z,3.53
2017-08-27T19:46:44.397Z,3.50
2017-08-27T19:49:10.442Z,3.40
2017-08-27T19:51:36.537Z,3.60
2017-08-27T19:54:02.558Z,3.45
2017-08-27T19:56:28.616Z,3.67
2017-08-27T19:58:54.679Z,3.20
2017-08-27T20:01:20.844Z,3.37
2017-08-27T20:03:46.897Z,3.70
2017-08-27T20:06:12.977Z,3.90
2017-08-27T20:08:39.106Z,3.80
2017-08-27T20:11:05.137Z,3.90
2017-08-27T20:13:31.179Z,3.85
2017-08-27T20:15:57.242Z,4.10
2017-08-27T20:18:23.348Z,3.72
2017-08-27T20:20:49.375Z,3.90
2017-08-27T20:23:15.751Z,4.10
2017-08-27T20:25:42.800Z,4.20
2017-08-27T20:28:08.847Z,4.00
2017-08-27T20:30:34.879Z,4.30
2017-08-27T20:33:01.030Z,4.12
2017-08-27T20:35:27.104Z,4.40
2017-08-27T20:37:53.170Z,4.60
2017-08-27T20:40:19.199Z,4.07
2017-08-27T20:42:45.261Z,4.10
2017-08-27T20:45:11.326Z,4.20
2017-08-27T20:47:37.392Z,4.35
2017-08-27T20:50:03.936Z,4.50
2017-08-27T20:52:30.012Z,3.63
2017-08-27T20:54:56.080Z,3.83
2017-08-27T20:57:22.387Z,5.13
2017-08-27T20:59:48.438Z,4.28
2017-08-27T21:02:14.851Z,3.80
2017-08-27T21:04:40.894Z,3.80
2017-08-27T21:07:06.922Z,3.47
2017-08-27T21:09:32.958Z,3.83
2017-08-27T21:11:59.067Z,4.15
2017-08-27T21:14:25.094Z,4.00
2017-08-27T21:16:51.184Z,3.58
2017-08-27T21:19:17.234Z,3.90
2017-08-27T21:21:43.315Z,3.90
2017-08-27T21:24:09.420Z,3.78
2017-08-27T21:26:35.805Z,3.62
2017-08-27T21:29:01.865Z,3.60
2017-08-27T21:31:27.999Z,4.10
2017-08-27T21:33:54.042Z,3.50
2017-08-27T21:36:20.089Z,4.05
2017-08-27T21:38:46.198Z,4.30
2017-08-27T21:41:12.310Z,63.35
2017-08-27T21:43:38.824Z,21.35
2017-08-27T21:46:05.481Z,6.10
2017-08-27T21:48:31.730Z,6.00
2017-08-27T21:50:58.087Z,5.57
2017-08-27T21:53:24.287Z,7.87
2017-08-27T21:55:50.450Z,5.75
2017-08-27T21:58:16.647Z,4.35
2017-08-27T22:00:42.815Z,4.55
2017-08-27T22:03:09.044Z,4.47
2017-08-27T22:05:35.327Z,4.50
2017-08-27T22:08:01.587Z,3.90
2017-08-27T22:10:27.773Z,4.40
2017-08-27T22:12:54.098Z,4.05
2017-08-27T22:15:20.261Z,4.30
2017-08-27T22:17:46.351Z,4.00
2017-08-27T22:20:12.598Z,4.03
2017-08-27T22:22:38.819Z,4.32
2017-08-27T22:25:04.851Z,4.20
2017-08-27T22:27:31.054Z,3.90
2017-08-27T22:29:57.160Z,3.92
2017-08-27T22:32:23.297Z,3.80
2017-08-27T22:34:50.302Z,4.00
2017-08-27T22:37:16.341Z,4.68
2017-08-27T22:39:42.443Z,4.43
2017-08-27T22:42:08.535Z,4.60
2017-08-27T22:44:34.583Z,4.90
2017-08-27T22:47:00.627Z,4.90
2017-08-27T22:49:26.654Z,5.00
2017-08-27T22:51:52.787Z,4.80
2017-08-27T22:54:18.828Z,4.43
2017-08-27T22:56:44.866Z,4.20
2017-08-27T22:59:11.250Z,4.30
2017-08-27T23:01:37.295Z,4.25
2017-08-27T23:04:03.518Z,5.10
2017-08-27T23:06:29.712Z,4.40
2017-08-27T23:08:55.891Z,4.30
2017-08-27T23:11:22.204Z,4.30
2017-08-27T23:13:48.433Z,4.43
2017-08-27T23:16:14.587Z,4.40
2017-08-27T23:18:40.813Z,4.70
2017-08-27T23:21:06.930Z,4.30
2017-08-27T23:23:33.060Z,4.50
2017-08-27T23:25:59.774Z,4.90
2017-08-27T23:28:26.014Z,4.32
2017-08-27T23:30:52.260Z,4.80
2017-08-27T23:33:18.766Z,4.40
2017-08-27T23:35:44.770Z,5.13
2017-08-27T23:38:10.787Z,5.40
2017-08-27T23:40:37.090Z,5.05
2017-08-27T23:43:03.106Z,5.10
2017-08-27T23:45:29.148Z,4.30
2017-08-27T23:47:55.193Z,4.97
2017-08-27T23:50:21.198Z,4.40
2017-08-27T23:52:47.218Z,5.30
2017-08-27T23:55:13.288Z,5.10
2017-08-27T23:57:39.309Z,4.90
